createdAt,value
2016-03-30T00:00:39.576Z,4.32
2016-03-30T00:01:39.438Z,4.22
2016-03-30T00:02:38.769Z,4.18
2016-03-30T00:03:38.615Z,4.27
2016-03-30T00:04:38.743Z,4.16
2016-03-30T00:05:38.730Z,4.15
2016-03-30T00:06:38.733Z,4.16
2016-03-30T00:07:38.720Z,4.18
2016-03-30T00:08:38.707Z,4.04
2016-03-30T00:09:38.725Z,4.12
2016-03-30T00:10:38.697Z,4.2
2016-03-30T00:11:38.684Z,4.12
2016-03-30T00:12:38.672Z,4.11
2016-03-30T00:13:38.674Z,4.14
2016-03-30T00:14:38.535Z,4.09
2016-03-30T00:15:38.664Z,4.11
2016-03-30T00:16:38.635Z,4
2016-03-30T00:17:38.622Z,4.06
2016-03-30T00:18:38.641Z,4.06
2016-03-30T00:19:38.612Z,4.05
2016-03-30T00:20:38.614Z,4.04
2016-03-30T00:21:38.585Z,4
2016-03-30T00:22:38.574Z,4
2016-03-30T00:23:38.607Z,3.98
2016-03-30T00:24:38.594Z,3.96
2016-03-30T00:25:38.581Z,3.93
2016-03-30T00:26:38.584Z,3.94
2016-03-30T00:27:38.555Z,3.91
2016-03-30T00:28:38.542Z,3.91
2016-03-30T00:29:38.545Z,3.96
2016-03-30T00:30:38.532Z,3.88
2016-03-30T00:31:38.518Z,3.88
2016-03-30T00:32:38.521Z,3.91
2016-03-30T00:33:38.492Z,3.73
2016-03-30T00:34:38.495Z,3.83
2016-03-30T00:35:38.326Z,3.75
2016-03-30T00:36:38.469Z,3.76
2016-03-30T00:37:38.457Z,3.78
2016-03-30T00:38:38.444Z,3.73
2016-03-30T00:39:38.447Z,3.73
2016-03-30T00:40:38.497Z,3.75
2016-03-30T00:41:38.452Z,3.7
2016-03-30T00:42:38.408Z,3.69
2016-03-30T00:43:38.410Z,3.7
2016-03-30T00:44:38.398Z,3.68
2016-03-30T00:45:38.416Z,3.69
2016-03-30T00:46:38.372Z,3.6
2016-03-30T00:47:38.374Z,3.65
2016-03-30T00:48:38.377Z,3.62
2016-03-30T00:49:38.364Z,3.51
2016-03-30T00:50:38.336Z,3.55
2016-03-30T00:51:38.339Z,3.65
2016-03-30T00:52:38.325Z,3.55
2016-03-30T00:53:38.327Z,3.58
2016-03-30T00:54:38.299Z,3.52
2016-03-30T00:55:38.302Z,3.51
2016-03-30T00:56:38.290Z,3.51
2016-03-30T00:57:38.292Z,3.57
2016-03-30T00:58:38.263Z,3.51
2016-03-30T00:59:38.266Z,3.42
2016-03-30T01:00:38.284Z,3.45
2016-03-30T01:01:38.257Z,3.48
2016-03-30T01:02:38.415Z,3.45
2016-03-30T01:03:38.543Z,3.54
2016-03-30T01:04:52.561Z,3.36
2016-03-30T01:05:38.220Z,3.5
2016-03-30T01:06:39.157Z,3.33
2016-03-30T01:07:39.446Z,3.39
2016-03-30T01:08:39.282Z,3.36
2016-03-30T01:09:38.149Z,3.43
2016-03-30T01:10:38.344Z,3.36
2016-03-30T01:11:40.291Z,3.4
2016-03-30T01:12:39.211Z,3.45
2016-03-30T01:13:38.068Z,3.33
2016-03-30T01:14:52.333Z,3.36
2016-03-30T01:15:53.378Z,3.43
2016-03-30T01:16:54.158Z,3.43
2016-03-30T01:17:38.737Z,3.31
2016-03-30T01:18:38.941Z,3.32
2016-03-30T01:19:38.709Z,3.31
2016-03-30T01:20:38.351Z,3.23
2016-03-30T01:21:37.977Z,3.39
2016-03-30T01:22:37.980Z,3.31
2016-03-30T01:23:37.966Z,3.31
2016-03-30T01:24:37.937Z,3.31
2016-03-30T01:25:37.939Z,3.32
2016-03-30T01:26:37.957Z,3.36
2016-03-30T01:27:37.929Z,3.31
2016-03-30T01:28:37.916Z,3.31
2016-03-30T01:29:37.934Z,3.23
2016-03-30T01:30:37.890Z,3.2
2016-03-30T01:31:37.892Z,3.26
2016-03-30T01:32:37.895Z,3.23
2016-03-30T01:33:37.883Z,3.28
2016-03-30T01:34:37.854Z,3.28
2016-03-30T01:35:37.872Z,3.32
2016-03-30T01:36:37.843Z,3.18
2016-03-30T01:37:37.846Z,3.23
2016-03-30T01:38:37.818Z,3.29
2016-03-30T01:39:37.821Z,3.24
2016-03-30T01:40:37.808Z,3.31
2016-03-30T01:41:37.794Z,3.21
2016-03-30T01:42:37.782Z,3.23
2016-03-30T01:43:37.768Z,3.23
2016-03-30T01:44:37.835Z,3.23
2016-03-30T01:45:37.758Z,3.23
2016-03-30T01:46:37.746Z,3.26
2016-03-30T01:47:37.748Z,3.21
2016-03-30T01:48:37.721Z,3.32
2016-03-30T01:49:37.738Z,3.31
2016-03-30T01:50:37.710Z,3.32
2016-03-30T01:51:37.713Z,3.21
2016-03-30T01:52:37.684Z,3.28
2016-03-30T01:53:37.701Z,3.29
2016-03-30T01:54:37.673Z,3.35
2016-03-30T01:55:37.676Z,3.28
2016-03-30T01:56:37.679Z,3.39
2016-03-30T01:57:37.666Z,3.36
2016-03-30T01:58:37.637Z,3.36
2016-03-30T01:59:37.639Z,3.43
2016-03-30T02:00:37.611Z,3.31
2016-03-30T02:01:37.598Z,3.35
2016-03-30T02:02:37.429Z,3.33
2016-03-30T02:03:37.603Z,3.39
2016-03-30T02:04:37.575Z,3.43
2016-03-30T02:05:37.578Z,3.48
2016-03-30T02:06:37.564Z,3.45
2016-03-30T02:07:37.833Z,3.54
2016-03-30T02:08:37.539Z,3.54
2016-03-30T02:09:37.542Z,3.54
2016-03-30T02:10:37.529Z,3.52
2016-03-30T02:11:37.532Z,3.6
2016-03-30T02:12:37.502Z,3.62
2016-03-30T02:13:37.506Z,3.6
2016-03-30T02:14:37.508Z,3.66
2016-03-30T02:15:37.495Z,3.68
2016-03-30T02:16:37.467Z,3.65
2016-03-30T02:17:37.454Z,3.69
2016-03-30T02:18:37.441Z,3.69
2016-03-30T02:19:37.444Z,3.8
2016-03-30T02:20:37.415Z,3.7
2016-03-30T02:21:51.855Z,3.75
2016-03-30T02:22:37.421Z,3.75
2016-03-30T02:23:37.423Z,3.87
2016-03-30T02:24:38.129Z,3.9
2016-03-30T02:25:38.179Z,3.9
2016-03-30T02:26:37.401Z,3.93
2016-03-30T02:27:37.369Z,3.88
2016-03-30T02:28:38.062Z,3.87
2016-03-30T02:29:37.343Z,3.98
2016-03-30T02:30:38.302Z,4
2016-03-30T02:31:37.318Z,4
2016-03-30T02:32:51.964Z,3.91
2016-03-30T02:34:37.765Z,4.04
2016-03-30T02:35:37.312Z,3.96
2016-03-30T02:36:38.521Z,3.98
2016-03-30T02:37:37.381Z,4
2016-03-30T02:38:37.273Z,4.04
2016-03-30T02:39:37.261Z,4.06
2016-03-30T02:40:37.263Z,4.05
2016-03-30T02:41:37.391Z,4.02
2016-03-30T02:42:37.238Z,4.11
2016-03-30T02:43:37.241Z,4.11
2016-03-30T02:44:37.227Z,4.08
2016-03-30T02:45:37.214Z,4.09
2016-03-30T02:46:37.202Z,4.12
2016-03-30T02:47:37.204Z,4.12
2016-03-30T02:48:37.175Z,4.14
2016-03-30T02:49:37.177Z,4.18
2016-03-30T02:50:37.166Z,4.26
2016-03-30T02:51:37.152Z,4.23
2016-03-30T02:52:37.140Z,4.23
2016-03-30T02:53:37.158Z,4.23
2016-03-30T02:54:37.129Z,4.32
2016-03-30T02:55:37.132Z,4.29
2016-03-30T02:56:37.104Z,4.27
2016-03-30T02:57:37.121Z,4.37
2016-03-30T02:58:37.125Z,4.36
2016-03-30T02:59:37.096Z,4.37
2016-03-30T03:00:37.067Z,4.4
2016-03-30T03:01:37.054Z,4.41
2016-03-30T03:02:37.073Z,4.4
2016-03-30T03:03:37.044Z,4.48
2016-03-30T03:04:37.031Z,4.36
2016-03-30T03:05:37.034Z,4.5
2016-03-30T03:06:37.006Z,4.51
2016-03-30T03:07:37.023Z,4.5
2016-03-30T03:08:37.011Z,4.44
2016-03-30T03:09:36.998Z,4.51
2016-03-30T03:10:36.984Z,4.52
2016-03-30T03:11:36.987Z,4.58
2016-03-30T03:12:36.975Z,4.66
2016-03-30T03:13:36.977Z,4.69
2016-03-30T03:14:36.964Z,4.65
2016-03-30T03:15:36.967Z,4.66
2016-03-30T03:16:36.939Z,4.73
2016-03-30T03:17:36.926Z,4.65
2016-03-30T03:18:36.929Z,4.65
2016-03-30T03:19:36.915Z,4.69
2016-03-30T03:20:36.919Z,4.59
2016-03-30T03:21:36.890Z,4.69
2016-03-30T03:22:36.892Z,4.84
2016-03-30T03:23:36.880Z,4.7
2016-03-30T03:24:36.883Z,4.72
2016-03-30T03:25:36.854Z,4.86
2016-03-30T03:26:36.857Z,4.84
2016-03-30T03:27:36.828Z,4.77
2016-03-30T03:28:36.846Z,4.82
2016-03-30T03:29:36.818Z,4.91
2016-03-30T03:30:36.821Z,4.86
2016-03-30T03:31:36.823Z,4.86
2016-03-30T03:32:36.793Z,4.89
2016-03-30T03:33:36.781Z,4.89
2016-03-30T03:34:36.799Z,4.89
2016-03-30T03:35:36.787Z,4.86
2016-03-30T03:36:36.789Z,4.92
2016-03-30T03:37:36.762Z,4.96
2016-03-30T03:38:36.764Z,4.94
2016-03-30T03:39:36.735Z,4.91
2016-03-30T03:40:36.738Z,5.02
2016-03-30T03:41:36.928Z,5.04
2016-03-30T03:42:36.728Z,5.02
2016-03-30T03:43:38.277Z,5.03
2016-03-30T03:44:36.764Z,5.12
2016-03-30T03:45:37.033Z,5.07
2016-03-30T03:46:36.847Z,5.15
2016-03-30T03:47:36.679Z,5.15
2016-03-30T03:48:36.837Z,5.13
2016-03-30T03:49:37.981Z,5.15
2016-03-30T03:50:37.250Z,5.2
2016-03-30T03:53:38.241Z,5.22
2016-03-30T03:54:37.619Z,5.35
2016-03-30T03:55:36.606Z,5.2
2016-03-30T03:56:36.983Z,5.28
2016-03-30T03:57:36.955Z,5.25
2016-03-30T03:58:36.801Z,5.25
2016-03-30T03:59:36.585Z,5.38
2016-03-30T04:00:36.573Z,5.39
2016-03-30T04:01:36.576Z,5.36
2016-03-30T04:02:36.546Z,5.35
2016-03-30T04:03:36.549Z,5.42
2016-03-30T04:04:36.552Z,5.39
2016-03-30T04:05:36.554Z,5.45
2016-03-30T04:06:36.557Z,5.54
2016-03-30T04:07:36.513Z,5.54
2016-03-30T04:08:36.501Z,5.48
2016-03-30T04:09:36.487Z,5.45
2016-03-30T04:10:36.506Z,5.53
2016-03-30T04:11:36.509Z,5.51
2016-03-30T04:12:36.495Z,5.49
2016-03-30T04:13:36.467Z,5.58
2016-03-30T04:14:36.469Z,5.51
2016-03-30T04:15:36.456Z,5.58
2016-03-30T04:16:36.444Z,5.54
2016-03-30T04:17:36.461Z,5.57
2016-03-30T04:18:36.434Z,5.63
2016-03-30T04:19:36.405Z,5.49
2016-03-30T04:20:36.439Z,5.58
2016-03-30T04:21:36.380Z,5.6
2016-03-30T04:22:36.398Z,5.6
2016-03-30T04:23:36.400Z,5.6
2016-03-30T04:24:36.372Z,5.49
2016-03-30T04:25:36.374Z,5.54
2016-03-30T04:26:36.377Z,5.51
2016-03-30T04:27:36.364Z,5.53
2016-03-30T04:28:36.367Z,5.51
2016-03-30T04:29:36.339Z,5.65
2016-03-30T04:30:36.357Z,5.63
2016-03-30T04:31:36.328Z,5.67
2016-03-30T04:32:36.331Z,5.65
2016-03-30T04:33:36.302Z,5.75
2016-03-30T04:34:36.305Z,5.74
2016-03-30T04:35:36.338Z,5.67
2016-03-30T04:36:36.310Z,5.78
2016-03-30T04:37:36.266Z,5.75
2016-03-30T04:38:36.268Z,5.82
2016-03-30T04:39:36.271Z,5.9
2016-03-30T04:40:36.273Z,5.86
2016-03-30T04:41:36.261Z,5.78
2016-03-30T04:42:36.232Z,5.79
2016-03-30T04:43:36.266Z,5.91
2016-03-30T04:44:36.223Z,5.86
2016-03-30T04:45:36.240Z,5.91
2016-03-30T04:46:36.212Z,5.99
2016-03-30T04:47:36.215Z,5.96
2016-03-30T04:48:36.218Z,5.97
2016-03-30T04:49:36.173Z,5.91
2016-03-30T04:50:36.192Z,5.96
2016-03-30T04:51:36.194Z,6.06
2016-03-30T04:52:36.181Z,5.94
2016-03-30T04:53:36.153Z,6
2016-03-30T04:54:36.155Z,5.91
2016-03-30T04:55:36.142Z,6
2016-03-30T04:56:36.144Z,5.99
2016-03-30T04:57:36.132Z,6.04
2016-03-30T04:58:36.119Z,6.01
2016-03-30T04:59:36.949Z,6.06
2016-03-30T05:00:37.172Z,6.11
2016-03-30T05:01:36.612Z,6.01
2016-03-30T05:02:38.083Z,6.08
2016-03-30T05:03:36.633Z,6.06
2016-03-30T05:04:36.963Z,6.11
2016-03-30T05:05:37.201Z,6.11
2016-03-30T05:06:36.187Z,6.11
2016-03-30T05:07:36.799Z,6.17
2016-03-30T05:08:51.146Z,6.17
2016-03-30T05:09:50.243Z,6.17
2016-03-30T05:10:36.152Z,6.21
2016-03-30T05:12:38.923Z,6.3
2016-03-30T05:13:37.910Z,6.33
2016-03-30T05:14:36.960Z,6.28
2016-03-30T05:15:37.103Z,6.34
2016-03-30T05:16:35.981Z,6.37
2016-03-30T05:17:35.967Z,6.38
2016-03-30T05:18:35.986Z,6.49
2016-03-30T05:19:35.972Z,6.56
2016-03-30T05:20:35.959Z,6.48
2016-03-30T05:21:35.947Z,6.52
2016-03-30T05:22:35.964Z,6.52
2016-03-30T05:23:35.936Z,6.54
2016-03-30T05:24:35.939Z,6.56
2016-03-30T05:25:35.942Z,6.59
2016-03-30T05:26:35.930Z,6.62
2016-03-30T05:27:35.900Z,6.69
2016-03-30T05:28:35.888Z,6.64
2016-03-30T05:29:35.906Z,6.69
2016-03-30T05:30:35.893Z,6.69
2016-03-30T05:31:35.880Z,6.71
2016-03-30T05:32:35.866Z,6.7
2016-03-30T05:33:35.869Z,6.69
2016-03-30T05:34:35.872Z,6.8
2016-03-30T05:35:35.859Z,6.71
2016-03-30T05:36:35.862Z,6.77
2016-03-30T05:37:35.833Z,6.79
2016-03-30T05:38:35.851Z,6.88
2016-03-30T05:39:35.839Z,6.81
2016-03-30T05:40:35.810Z,6.88
2016-03-30T05:41:35.813Z,6.87
2016-03-30T05:42:35.801Z,6.98
2016-03-30T05:43:35.803Z,6.98
2016-03-30T05:44:35.774Z,7.13
2016-03-30T05:45:35.809Z,7.1
2016-03-30T05:46:35.779Z,7.12
2016-03-30T05:47:35.767Z,7.17
2016-03-30T05:48:35.769Z,7.21
2016-03-30T05:49:35.741Z,7.27
2016-03-30T05:50:35.744Z,7.34
2016-03-30T05:51:35.761Z,7.27
2016-03-30T05:52:35.765Z,7.37
2016-03-30T05:53:35.736Z,7.28
2016-03-30T05:54:35.723Z,7.32
2016-03-30T05:55:35.711Z,7.46
2016-03-30T05:56:35.728Z,7.42
2016-03-30T05:57:35.700Z,7.45
2016-03-30T05:58:35.702Z,7.49
2016-03-30T05:59:35.705Z,7.53
2016-03-30T06:00:35.708Z,7.5
2016-03-30T06:01:35.664Z,7.55
2016-03-30T06:02:35.682Z,7.57
2016-03-30T06:03:35.669Z,7.67
2016-03-30T06:04:35.656Z,7.58
2016-03-30T06:05:35.659Z,7.71
2016-03-30T06:06:35.646Z,7.61
2016-03-30T06:07:35.633Z,7.67
2016-03-30T06:08:35.636Z,7.61
2016-03-30T06:09:35.623Z,7.58
2016-03-30T06:10:35.626Z,7.55
2016-03-30T06:11:35.613Z,7.64
2016-03-30T06:12:35.646Z,7.58
2016-03-30T06:13:35.587Z,7.53
2016-03-30T06:14:35.604Z,7.57
2016-03-30T06:15:35.607Z,7.64
2016-03-30T06:16:35.595Z,7.53
2016-03-30T06:17:35.581Z,7.49
2016-03-30T06:18:37.303Z,7.46
2016-03-30T06:19:35.555Z,7.46
2016-03-30T06:20:35.574Z,7.42
2016-03-30T06:21:37.077Z,7.4
2016-03-30T06:22:35.547Z,7.43
2016-03-30T06:23:36.582Z,7.43
2016-03-30T06:24:36.491Z,7.42
2016-03-30T06:25:35.713Z,7.42
2016-03-30T06:26:35.544Z,7.43
2016-03-30T06:27:35.578Z,7.42
2016-03-30T06:28:36.705Z,7.5
2016-03-30T06:29:35.520Z,7.49
2016-03-30T06:30:35.851Z,7.43
2016-03-30T06:31:50.869Z,7.43
2016-03-30T06:32:35.497Z,7.39
2016-03-30T06:33:36.921Z,7.4
2016-03-30T06:34:35.456Z,7.34
2016-03-30T06:35:35.615Z,7.42
2016-03-30T06:36:35.680Z,7.46
2016-03-30T06:37:35.464Z,7.57
2016-03-30T06:38:35.638Z,7.46
2016-03-30T06:39:35.454Z,7.58
2016-03-30T06:40:35.424Z,7.63
2016-03-30T06:41:35.443Z,7.55
2016-03-30T06:42:35.430Z,7.5
2016-03-30T06:43:35.432Z,7.53
2016-03-30T06:44:35.420Z,7.53
2016-03-30T06:45:35.437Z,7.58
2016-03-30T06:46:35.410Z,7.58
2016-03-30T06:47:35.412Z,7.58
2016-03-30T06:48:35.384Z,7.58
2016-03-30T06:49:35.371Z,7.64
2016-03-30T06:50:35.389Z,7.69
2016-03-30T06:51:35.376Z,7.69
2016-03-30T06:52:35.378Z,7.69
2016-03-30T06:53:35.350Z,7.57
2016-03-30T06:54:35.353Z,7.57
2016-03-30T06:55:35.339Z,7.64
2016-03-30T06:56:35.327Z,7.55
2016-03-30T06:57:35.345Z,7.57
2016-03-30T06:58:35.332Z,7.57
2016-03-30T06:59:35.336Z,7.6
2016-03-30T07:00:35.322Z,7.71
2016-03-30T07:01:35.325Z,7.64
2016-03-30T07:02:35.297Z,7.6
2016-03-30T07:03:35.299Z,7.67
2016-03-30T07:04:35.302Z,7.67
2016-03-30T07:05:35.289Z,7.57
2016-03-30T07:06:35.291Z,7.55
2016-03-30T07:07:35.263Z,7.53
2016-03-30T07:08:35.250Z,7.58
2016-03-30T07:09:35.269Z,7.58
2016-03-30T07:10:35.256Z,7.55
2016-03-30T07:11:35.258Z,7.58
2016-03-30T07:12:35.246Z,7.71
2016-03-30T07:13:35.249Z,7.6
2016-03-30T07:14:35.221Z,7.53
2016-03-30T07:15:35.239Z,7.6
2016-03-30T07:16:35.226Z,7.6
2016-03-30T07:17:34.494Z,7.64
2016-03-30T07:18:35.200Z,7.68
2016-03-30T07:19:35.202Z,7.79
2016-03-30T07:20:35.205Z,7.82
2016-03-30T07:21:35.207Z,7.82
2016-03-30T07:22:35.179Z,7.79
2016-03-30T07:23:35.198Z,7.85
2016-03-30T07:24:35.184Z,7.89
2016-03-30T07:25:35.171Z,8
2016-03-30T07:26:35.159Z,7.87
2016-03-30T07:27:35.162Z,7.97
2016-03-30T07:28:35.149Z,7.87
2016-03-30T07:29:35.167Z,8.01
2016-03-30T07:30:35.139Z,8.04
2016-03-30T07:31:35.157Z,7.98
2016-03-30T07:32:35.144Z,8.15
2016-03-30T07:33:35.147Z,8.12
2016-03-30T07:34:35.117Z,8.25
2016-03-30T07:35:35.105Z,8.33
2016-03-30T07:36:35.108Z,8.26
2016-03-30T07:37:49.798Z,8.36
2016-03-30T07:38:35.114Z,8.38
2016-03-30T07:39:35.100Z,8.44
2016-03-30T07:40:36.697Z,8.34
2016-03-30T07:41:35.089Z,8.4
2016-03-30T07:42:36.077Z,8.34
2016-03-30T07:43:36.533Z,8.33
2016-03-30T07:44:35.567Z,8.38
2016-03-30T07:45:35.055Z,8.37
2016-03-30T07:46:49.244Z,8.37
2016-03-30T07:47:49.247Z,8.37
2016-03-30T07:48:35.374Z,8.37
2016-03-30T07:49:35.440Z,8.37
2016-03-30T07:50:51.083Z,8.43
2016-03-30T07:51:35.492Z,8.44
2016-03-30T07:52:35.119Z,8.47
2016-03-30T07:53:35.840Z,8.43
2016-03-30T07:54:35.937Z,8.41
2016-03-30T07:55:35.018Z,8.44
2016-03-30T07:56:35.193Z,8.53
2016-03-30T07:57:34.992Z,8.5
2016-03-30T07:58:34.995Z,8.65
2016-03-30T07:59:34.857Z,8.7
2016-03-30T08:00:35.063Z,8.7
2016-03-30T08:01:35.003Z,8.76
2016-03-30T08:02:34.975Z,8.81
2016-03-30T08:03:34.978Z,8.94
2016-03-30T08:04:34.964Z,9.01
2016-03-30T08:05:35.039Z,9.1
2016-03-30T08:06:35.057Z,9.18
2016-03-30T08:07:34.982Z,9.18
2016-03-30T08:08:36.113Z,9.28
2016-03-30T08:09:35.725Z,9.31
2016-03-30T08:10:34.931Z,9.33
2016-03-30T08:11:34.934Z,9.43
2016-03-30T08:12:34.921Z,9.47
2016-03-30T08:13:34.924Z,9.6
2016-03-30T08:14:34.911Z,9.57
2016-03-30T08:15:35.008Z,9.64
2016-03-30T08:16:34.900Z,9.72
2016-03-30T08:17:34.904Z,9.78
2016-03-30T08:18:34.891Z,9.83
2016-03-30T08:19:34.878Z,9.86
2016-03-30T08:20:34.864Z,9.9
2016-03-30T08:21:34.883Z,10.02
2016-03-30T08:22:34.870Z,10.08
2016-03-30T08:23:34.888Z,10.08
2016-03-30T08:24:34.908Z,10.18
2016-03-30T08:25:34.878Z,10.26
2016-03-30T08:26:34.866Z,10.26
2016-03-30T08:27:34.852Z,10.26
2016-03-30T08:28:34.855Z,10.36
2016-03-30T08:29:34.858Z,10.47
2016-03-30T08:30:34.861Z,10.45
2016-03-30T08:31:34.848Z,10.47
2016-03-30T08:32:34.851Z,10.47
2016-03-30T08:33:34.838Z,10.53
2016-03-30T08:34:34.856Z,10.51
2016-03-30T08:35:34.850Z,10.59
2016-03-30T08:36:34.836Z,10.56
2016-03-30T08:37:34.823Z,10.52
2016-03-30T08:38:34.826Z,10.45
2016-03-30T08:39:34.813Z,10.47
2016-03-30T08:40:34.816Z,10.44
2016-03-30T08:41:34.818Z,10.48
2016-03-30T08:42:34.805Z,10.45
2016-03-30T08:43:34.808Z,10.44
2016-03-30T08:44:34.818Z,10.56
2016-03-30T08:45:34.867Z,10.6
2016-03-30T08:46:34.807Z,10.64
2016-03-30T08:47:34.795Z,10.74
2016-03-30T08:48:34.798Z,10.74
2016-03-30T08:49:34.784Z,10.82
2016-03-30T08:50:34.787Z,10.85
2016-03-30T08:51:34.790Z,11.06
2016-03-30T08:52:34.778Z,11.15
2016-03-30T08:53:34.780Z,11.24
2016-03-30T08:54:34.767Z,11.27
2016-03-30T08:55:34.786Z,11.24
2016-03-30T08:56:48.960Z,11.25
2016-03-30T08:57:48.947Z,11.39
2016-03-30T08:59:34.968Z,11.43
2016-03-30T09:00:36.611Z,11.49
2016-03-30T09:01:34.895Z,11.51
2016-03-30T09:02:34.757Z,11.76
2016-03-30T09:03:34.744Z,11.73
2016-03-30T09:04:35.528Z,11.76
2016-03-30T09:05:34.969Z,11.88
2016-03-30T09:06:48.940Z,11.94
2016-03-30T09:07:34.755Z,11.83
2016-03-30T09:08:34.945Z,11.78
2016-03-30T09:10:36.638Z,11.98
2016-03-30T09:11:35.954Z,12.05
2016-03-30T09:12:36.128Z,12.04
2016-03-30T09:13:34.756Z,12.19
2016-03-30T09:14:34.710Z,12.28
2016-03-30T09:15:35.058Z,12.28
2016-03-30T09:16:34.715Z,12.27
2016-03-30T09:17:34.764Z,12.24
2016-03-30T09:18:34.704Z,12.23
2016-03-30T09:19:34.723Z,12.24
2016-03-30T09:20:34.725Z,12.21
2016-03-30T09:21:34.713Z,12.2
2016-03-30T09:22:34.699Z,12.14
2016-03-30T09:23:34.702Z,12.16
2016-03-30T09:24:34.704Z,12.17
2016-03-30T09:25:34.691Z,12.2
2016-03-30T09:26:34.709Z,12.27
2016-03-30T09:27:34.698Z,12.31
2016-03-30T09:28:34.700Z,12.24
2016-03-30T09:29:34.686Z,12.2
2016-03-30T09:30:34.736Z,12.2
2016-03-30T09:31:34.692Z,12.12
2016-03-30T09:32:34.695Z,12.19
2016-03-30T09:33:34.697Z,12.02
2016-03-30T09:34:34.684Z,11.95
2016-03-30T09:35:34.703Z,11.94
2016-03-30T09:36:34.706Z,11.99
2016-03-30T09:37:34.677Z,12.05
2016-03-30T09:38:34.664Z,11.94
2016-03-30T09:39:34.666Z,12.02
2016-03-30T09:40:34.669Z,12.02
2016-03-30T09:41:34.672Z,12.02
2016-03-30T09:42:34.675Z,12.17
2016-03-30T09:43:34.662Z,12.2
2016-03-30T09:44:34.665Z,12.16
2016-03-30T09:45:34.683Z,12.21
2016-03-30T09:46:34.670Z,12.28
2016-03-30T09:47:34.657Z,12.45
2016-03-30T09:48:34.660Z,12.42
2016-03-30T09:49:34.646Z,12.64
2016-03-30T09:50:34.649Z,12.62
2016-03-30T09:51:34.637Z,12.72
2016-03-30T09:52:34.655Z,12.77
2016-03-30T09:53:34.657Z,12.86
2016-03-30T09:54:34.660Z,13.01
2016-03-30T09:55:34.648Z,13.12
2016-03-30T09:56:34.650Z,13.23
2016-03-30T09:57:34.653Z,13.19
2016-03-30T09:58:34.671Z,13.26
2016-03-30T09:59:34.642Z,13.38
2016-03-30T10:00:34.661Z,13.44
2016-03-30T10:01:34.631Z,13.42
2016-03-30T10:02:34.651Z,13.55
2016-03-30T10:03:34.637Z,13.52
2016-03-30T10:04:34.640Z,13.55
2016-03-30T10:05:34.627Z,13.66
2016-03-30T10:06:34.630Z,13.59
2016-03-30T10:07:34.617Z,13.67
2016-03-30T10:08:34.620Z,13.71
2016-03-30T10:09:34.623Z,13.7
2016-03-30T10:10:34.641Z,13.71
2016-03-30T10:11:34.627Z,13.66
2016-03-30T10:12:34.615Z,13.69
2016-03-30T10:13:34.615Z,13.69
2016-03-30T10:14:34.608Z,13.67
2016-03-30T10:15:35.756Z,13.62
2016-03-30T10:16:35.577Z,13.55
2016-03-30T10:17:34.787Z,13.52
2016-03-30T10:18:35.719Z,13.59
2016-03-30T10:20:35.952Z,13.39
2016-03-30T10:21:35.809Z,13.36
2016-03-30T10:22:35.683Z,13.41
2016-03-30T10:23:34.541Z,13.32
2016-03-30T10:24:49.638Z,13.36
2016-03-30T10:25:35.529Z,13.39
2016-03-30T10:26:34.655Z,13.28
2016-03-30T10:27:35.656Z,13.2
2016-03-30T10:28:35.830Z,13.25
2016-03-30T10:29:35.160Z,13.3
2016-03-30T10:30:34.521Z,13.22
2016-03-30T10:31:35.086Z,13.23
2016-03-30T10:32:35.323Z,13.2
2016-03-30T10:33:34.528Z,13.29
2016-03-30T10:34:34.969Z,13.36
2016-03-30T10:35:34.517Z,13.41
2016-03-30T10:36:34.521Z,13.52
2016-03-30T10:37:34.523Z,13.54
2016-03-30T10:38:34.526Z,13.62
2016-03-30T10:39:34.528Z,13.69
2016-03-30T10:40:34.531Z,13.69
2016-03-30T10:41:34.502Z,13.77
2016-03-30T10:42:34.522Z,13.73
2016-03-30T10:43:34.493Z,13.81
2016-03-30T10:44:34.496Z,13.92
2016-03-30T10:45:34.514Z,13.91
2016-03-30T10:46:34.516Z,13.87
2016-03-30T10:47:34.503Z,14.02
2016-03-30T10:48:34.506Z,14.07
2016-03-30T10:49:34.509Z,14.24
2016-03-30T10:50:34.512Z,14.29
2016-03-30T10:51:34.515Z,14.36
2016-03-30T10:52:34.501Z,14.46
2016-03-30T10:53:34.504Z,14.61
2016-03-30T10:54:34.523Z,14.54
2016-03-30T10:55:34.509Z,14.47
2016-03-30T10:56:34.512Z,14.64
2016-03-30T10:57:34.498Z,14.57
2016-03-30T10:58:34.517Z,14.57
2016-03-30T10:59:34.504Z,14.57
2016-03-30T11:00:34.507Z,14.65
2016-03-30T11:01:34.494Z,14.64
2016-03-30T11:02:34.528Z,14.75
2016-03-30T11:03:34.515Z,14.77
2016-03-30T11:04:34.502Z,14.92
2016-03-30T11:05:34.506Z,15.03
2016-03-30T11:06:34.492Z,15.19
2016-03-30T11:07:34.511Z,15.2
2016-03-30T11:08:34.513Z,15.21
2016-03-30T11:09:34.500Z,15.2
2016-03-30T11:10:34.502Z,15.21
2016-03-30T11:11:34.521Z,15.36
2016-03-30T11:12:34.492Z,15.41
2016-03-30T11:13:34.511Z,15.47
2016-03-30T11:14:34.513Z,15.53
2016-03-30T11:15:34.516Z,15.56
2016-03-30T11:16:34.518Z,15.71
2016-03-30T11:17:34.522Z,15.71
2016-03-30T11:18:34.524Z,15.71
2016-03-30T11:19:34.511Z,15.71
2016-03-30T11:20:34.513Z,15.84
2016-03-30T11:21:34.501Z,15.94
2016-03-30T11:22:34.504Z,15.83
2016-03-30T11:23:34.507Z,15.83
2016-03-30T11:24:34.509Z,15.78
2016-03-30T11:25:34.512Z,15.71
2016-03-30T11:26:34.499Z,15.75
2016-03-30T11:27:34.517Z,15.68
2016-03-30T11:28:34.520Z,15.67
2016-03-30T11:29:34.523Z,15.75
2016-03-30T11:30:34.509Z,15.67
2016-03-30T11:31:34.528Z,15.68
2016-03-30T11:32:34.515Z,15.68
2016-03-30T11:33:35.878Z,15.67
2016-03-30T11:34:34.723Z,15.65
2016-03-30T11:35:34.523Z,15.62
2016-03-30T11:36:34.541Z,15.59
2016-03-30T11:37:34.528Z,15.53
2016-03-30T11:38:36.703Z,15.5
2016-03-30T11:39:34.628Z,15.53
2016-03-30T11:40:34.553Z,15.54
2016-03-30T11:41:35.336Z,15.49
2016-03-30T11:42:34.527Z,15.43
2016-03-30T11:43:35.544Z,15.43
2016-03-30T11:44:34.891Z,15.54
2016-03-30T11:45:34.972Z,15.44
2016-03-30T11:47:35.336Z,15.41
2016-03-30T11:48:35.323Z,15.34
2016-03-30T11:49:35.420Z,15.36
2016-03-30T11:50:34.548Z,15.28
2016-03-30T11:51:34.535Z,15.34
2016-03-30T11:52:34.740Z,15.34
2016-03-30T11:53:34.727Z,15.28
2016-03-30T11:54:34.559Z,15.29
2016-03-30T11:55:34.546Z,15.31
2016-03-30T11:56:34.533Z,15.31
2016-03-30T11:57:34.535Z,15.38
2016-03-30T11:58:34.537Z,15.43
2016-03-30T11:59:34.557Z,15.47
2016-03-30T12:00:34.543Z,15.41
2016-03-30T12:01:34.562Z,15.31
2016-03-30T12:02:34.564Z,15.32
2016-03-30T12:03:34.551Z,15.34
2016-03-30T12:04:34.539Z,15.35
2016-03-30T12:05:34.557Z,15.36
2016-03-30T12:06:34.544Z,15.32
2016-03-30T12:07:34.561Z,15.41
2016-03-30T12:08:34.549Z,15.44
2016-03-30T12:09:34.557Z,15.32
2016-03-30T12:10:34.543Z,15.38
2016-03-30T12:11:34.546Z,15.27
2016-03-30T12:12:34.548Z,15.23
2016-03-30T12:13:34.551Z,15.2
2016-03-30T12:14:34.537Z,15.21
2016-03-30T12:15:34.557Z,15.27
2016-03-30T12:16:34.559Z,15.2
2016-03-30T12:17:34.561Z,15.19
2016-03-30T12:18:34.548Z,15.2
2016-03-30T12:19:34.552Z,15.19
2016-03-30T12:20:34.554Z,15.19
2016-03-30T12:21:34.573Z,15.17
2016-03-30T12:22:34.403Z,15.23
2016-03-30T12:23:34.375Z,15.19
2016-03-30T12:24:34.550Z,15.25
2016-03-30T12:25:34.553Z,15.23
2016-03-30T12:26:34.555Z,15.27
2016-03-30T12:27:34.557Z,15.32
2016-03-30T12:28:34.544Z,15.36
2016-03-30T12:29:34.563Z,15.34
2016-03-30T12:30:34.550Z,15.32
2016-03-30T12:31:34.569Z,15.44
2016-03-30T12:32:34.555Z,15.38
2016-03-30T12:33:34.574Z,15.49
2016-03-30T12:34:34.561Z,15.46
2016-03-30T12:35:34.563Z,15.41
2016-03-30T12:36:34.582Z,15.51
2016-03-30T12:37:34.568Z,15.51
2016-03-30T12:38:34.572Z,15.57
2016-03-30T12:39:34.574Z,15.57
2016-03-30T12:40:34.561Z,15.56
2016-03-30T12:41:34.563Z,15.6
2016-03-30T12:42:34.566Z,15.62
2016-03-30T12:43:34.569Z,15.51
2016-03-30T12:44:34.556Z,15.54
2016-03-30T12:45:34.559Z,15.49
2016-03-30T12:46:34.576Z,15.41
2016-03-30T12:47:34.579Z,15.44
2016-03-30T12:48:34.567Z,15.39
2016-03-30T12:49:34.570Z,15.43
2016-03-30T12:50:34.557Z,15.53
2016-03-30T12:51:34.590Z,15.62
2016-03-30T12:53:34.565Z,15.6
2016-03-30T12:54:34.598Z,15.54
2016-03-30T12:55:35.242Z,15.51
2016-03-30T12:57:35.700Z,15.68
2016-03-30T12:58:36.156Z,15.71
2016-03-30T12:59:35.659Z,15.78
2016-03-30T13:00:35.130Z,15.75
2016-03-30T13:01:34.586Z,15.92
2016-03-30T13:02:35.636Z,16
2016-03-30T13:03:48.782Z,15.96
2016-03-30T13:04:34.579Z,16.09
2016-03-30T13:05:49.631Z,16.12
2016-03-30T13:06:35.381Z,16.12
2016-03-30T13:07:36.227Z,16.15
2016-03-30T13:08:34.668Z,16.2
2016-03-30T13:09:35.296Z,16.33
2016-03-30T13:10:35.282Z,16.34
2016-03-30T13:11:35.191Z,16.38
2016-03-30T13:12:34.601Z,16.39
2016-03-30T13:13:34.759Z,16.45
2016-03-30T13:14:34.591Z,16.45
2016-03-30T13:15:34.609Z,16.39
2016-03-30T13:16:34.596Z,16.52
2016-03-30T13:17:34.598Z,16.57
2016-03-30T13:18:34.601Z,16.6
2016-03-30T13:19:34.620Z,16.61
2016-03-30T13:20:34.622Z,16.68
2016-03-30T13:21:34.609Z,16.73